Time,TemperatureF,DewpointF,PressureIn,WindDirection,WindDirectionDegrees,WindSpeedMPH,WindSpeedGustMPH,Humidity,HourlyPrecipIn,Conditions,Clouds,dailyrainin,SolarRadiationWatts/m^2,SoftwareType,DateUTC
2013-09-12 00:05:00,72.0,68.0,-100.00,SW,219,10.0,17.0,87,0.00,,,0.00,0.000000,,2013-09-12 04:05:00,
2013-09-12 00:12:00,72.0,69.0,-100.00,SW,222,10.0,19.0,90,0.00,,,0.00,0.000000,,2013-09-12 04:12:00,
2013-09-12 00:44:00,72.0,69.0,-100.00,SW,222,10.0,19.0,90,0.00,,,0.00,0.000000,,2013-09-12 04:44:00,
2013-09-12 00:54:00,72.0,69.0,-100.00,SW,222,10.0,19.0,90,0.00,,,0.00,0.000000,,2013-09-12 04:54:00,
2013-09-12 01:03:00,72.0,69.0,-100.00,SW,222,10.0,19.0,90,0.00,,,0.00,0.000000,,2013-09-12 05:03:00,
2013-09-12 01:12:00,71.0,69.0,-100.00,SW,216,5.0,17.0,93,0.00,,,0.00,0.000000,,2013-09-12 05:12:00,
2013-09-12 01:43:00,71.0,69.0,-100.00,SW,216,5.0,17.0,93,0.00,,,0.00,0.000000,,2013-09-12 05:43:00,
2013-09-12 01:53:00,71.0,69.0,-100.00,SW,216,5.0,17.0,93,0.00,,,0.00,0.000000,,2013-09-12 05:53:00,
2013-09-12 02:01:00,71.0,69.0,-100.00,SW,216,5.0,17.0,93,0.00,,,0.00,0.000000,,2013-09-12 06:01:00,
2013-09-12 02:12:00,70.0,68.0,-100.00,SSW,199,2.0,9.0,95,0.00,,,0.00,0.000000,,2013-09-12 06:12:00,
2013-09-12 02:42:00,70.0,68.0,-100.00,SSW,199,2.0,9.0,95,0.00,,,0.00,0.000000,,2013-09-12 06:42:00,
2013-09-12 02:52:00,70.0,68.0,-100.00,SSW,199,2.0,9.0,95,0.00,,,0.00,0.000000,,2013-09-12 06:52:00,
2013-09-12 03:02:00,70.0,68.0,-100.00,SSW,199,2.0,9.0,95,0.00,,,0.00,0.000000,,2013-09-12 07:02:00,
2013-09-12 03:44:00,70.0,69.0,-100.00,SSW,200,3.0,11.0,97,0.00,,,0.00,0.000000,,2013-09-12 07:44:00,
2013-09-12 03:53:00,70.0,69.0,-100.00,SSW,200,3.0,11.0,97,0.00,,,0.00,0.000000,,2013-09-12 07:53:00,
2013-09-12 04:02:00,70.0,69.0,-100.00,SSW,200,3.0,11.0,97,0.00,,,0.00,0.000000,,2013-09-12 08:02:00,
2013-09-12 04:11:00,70.0,69.0,-100.00,SSW,200,3.0,11.0,97,0.00,,,0.00,0.000000,,2013-09-12 08:11:00,
2013-09-12 04:12:00,69.0,68.0,-100.00,SSW,210,4.0,9.0,98,0.00,,,0.00,0.000000,,2013-09-12 08:12:00,
2013-09-12 04:42:00,69.0,68.0,-100.00,SSW,210,4.0,9.0,98,0.00,,,0.00,0.000000,,2013-09-12 08:42:00,
2013-09-12 04:52:00,69.0,68.0,-100.00,SSW,210,4.0,9.0,98,0.00,,,0.00,0.000000,,2013-09-12 08:52:00,
2013-09-12 05:02:00,69.0,68.0,-100.00,SSW,210,4.0,9.0,98,0.00,,,0.00,0.000000,,2013-09-12 09:02:00,
2013-09-12 05:12:00,69.0,69.0,-100.00,SSW,204,4.0,7.0,99,0.00,,,0.00,0.000000,,2013-09-12 09:12:00,
2013-09-12 05:43:00,69.0,69.0,-100.00,SSW,204,4.0,7.0,99,0.00,,,0.00,0.000000,,2013-09-12 09:43:00,
2013-09-12 05:53:00,69.0,69.0,-100.00,SSW,204,4.0,7.0,99,0.00,,,0.00,0.000000,,2013-09-12 09:53:00,
2013-09-12 06:03:00,69.0,69.0,-100.00,SSW,204,4.0,7.0,99,0.00,,,0.00,0.000000,,2013-09-12 10:03:00,
2013-09-12 06:43:00,69.0,68.0,-100.00,SSW,210,7.0,12.0,98,0.00,,,0.00,0.000000,,2013-09-12 10:43:00,
2013-09-12 06:53:00,69.0,68.0,-100.00,SSW,210,7.0,12.0,98,0.00,,,0.00,0.000000,,2013-09-12 10:53:00,
2013-09-12 07:03:00,69.0,68.0,-100.00,SSW,210,7.0,12.0,98,0.00,,,0.00,0.000000,,2013-09-12 11:03:00,
2013-09-12 07:11:00,69.0,68.0,-100.00,SSW,210,7.0,12.0,98,0.00,,,0.00,0.000000,,2013-09-12 11:11:00,
2013-09-12 07:12:00,71.0,70.0,-100.00,SSW,211,6.0,15.0,96,0.00,,,0.00,18.000000,,2013-09-12 11:12:00,
2013-09-12 07:42:00,71.0,70.0,-100.00,SSW,211,6.0,15.0,96,0.00,,,0.00,18.000000,,2013-09-12 11:42:00,
2013-09-12 07:52:00,71.0,70.0,-100.00,SSW,211,6.0,15.0,96,0.00,,,0.00,18.000000,,2013-09-12 11:52:00,
2013-09-12 08:01:00,71.0,70.0,-100.00,SSW,211,6.0,15.0,96,0.00,,,0.00,18.000000,,2013-09-12 12:01:00,
2013-09-12 08:42:00,72.0,70.0,-100.00,SW,214,7.0,16.0,93,0.00,,,0.00,116.000000,,2013-09-12 12:42:00,
2013-09-12 08:52:00,72.0,70.0,-100.00,SW,214,7.0,16.0,93,0.00,,,0.00,116.000000,,2013-09-12 12:52:00,
2013-09-12 09:02:00,72.0,70.0,-100.00,SW,214,7.0,16.0,93,0.00,,,0.00,116.000000,,2013-09-12 13:02:00,
2013-09-12 09:11:00,72.0,70.0,-100.00,SW,214,7.0,16.0,93,0.00,,,0.00,116.000000,,2013-09-12 13:11:00,
2013-09-12 09:42:00,76.0,71.0,-100.00,SSW,211,7.0,16.0,85,0.00,,,0.00,441.000000,,2013-09-12 13:42:00,
2013-09-12 09:52:00,76.0,71.0,-100.00,SSW,211,7.0,16.0,85,0.00,,,0.00,441.000000,,2013-09-12 13:52:00,
2013-09-12 10:02:00,76.0,71.0,-100.00,SSW,211,7.0,16.0,85,0.00,,,0.00,441.000000,,2013-09-12 14:02:00,
2013-09-12 10:11:00,76.0,71.0,-100.00,SSW,211,7.0,16.0,85,0.00,,,0.00,441.000000,,2013-09-12 14:11:00,
2013-09-12 10:42:00,78.0,71.0,-100.00,SSW,202,7.0,15.0,79,0.00,,,0.00,646.000000,,2013-09-12 14:42:00,
2013-09-12 10:52:00,78.0,71.0,-100.00,SSW,202,7.0,15.0,79,0.00,,,0.00,646.000000,,2013-09-12 14:52:00,
2013-09-12 11:02:00,78.0,71.0,-100.00,SSW,202,7.0,15.0,79,0.00,,,0.00,646.000000,,2013-09-12 15:02:00,
2013-09-12 11:11:00,78.0,71.0,-100.00,SSW,202,7.0,15.0,79,0.00,,,0.00,646.000000,,2013-09-12 15:11:00,
2013-09-12 11:12:00,79.0,71.0,-100.00,SSW,210,7.0,16.0,76,0.00,,,0.00,806.000000,,2013-09-12 15:12:00,
2013-09-12 11:44:00,79.0,71.0,-100.00,SSW,210,7.0,16.0,76,0.00,,,0.00,806.000000,,2013-09-12 15:44:00,
2013-09-12 11:54:00,79.0,71.0,-100.00,SSW,210,7.0,16.0,76,0.00,,,0.00,806.000000,,2013-09-12 15:54:00,
2013-09-12 12:03:00,79.0,71.0,-100.00,SSW,210,7.0,16.0,76,0.00,,,0.00,806.000000,,2013-09-12 16:03:00,
2013-09-12 12:12:00,80.0,73.0,-100.00,SSW,205,6.0,18.0,79,0.00,,,0.00,709.000000,,2013-09-12 16:12:00,
2013-09-12 12:43:00,80.0,73.0,-100.00,SSW,205,6.0,18.0,79,0.00,,,0.00,709.000000,,2013-09-12 16:43:00,
2013-09-12 12:53:00,80.0,73.0,-100.00,SSW,205,6.0,18.0,79,0.00,,,0.00,709.000000,,2013-09-12 16:53:00,
2013-09-12 13:03:00,80.0,73.0,-100.00,SSW,205,6.0,18.0,79,0.00,,,0.00,709.000000,,2013-09-12 17:03:00,
2013-09-12 14:12:00,81.0,73.0,-100.00,SSW,213,8.0,17.0,76,0.00,,,0.00,663.000000,,2013-09-12 18:12:00,
2013-09-12 14:42:00,81.0,73.0,-100.00,SSW,213,8.0,17.0,76,0.00,,,0.00,663.000000,,2013-09-12 18:42:00,
2013-09-12 14:52:00,81.0,73.0,-100.00,SSW,213,8.0,17.0,76,0.00,,,0.00,663.000000,,2013-09-12 18:52:00,
2013-09-12 15:02:00,81.0,73.0,-100.00,SSW,213,8.0,17.0,76,0.00,,,0.00,663.000000,,2013-09-12 19:02:00,
2013-09-12 15:12:00,78.0,71.0,-100.00,SSW,203,5.0,15.0,78,0.00,,,0.00,475.000000,,2013-09-12 19:12:00,
2013-09-12 15:42:00,78.0,71.0,-100.00,SSW,203,5.0,15.0,78,0.00,,,0.00,475.000000,,2013-09-12 19:42:00,
2013-09-12 15:52:00,78.0,71.0,-100.00,SSW,203,5.0,15.0,78,0.00,,,0.00,475.000000,,2013-09-12 19:52:00,
2013-09-12 16:02:00,78.0,71.0,-100.00,SSW,203,5.0,15.0,78,0.00,,,0.00,475.000000,,2013-09-12 20:02:00,
2013-09-12 16:42:00,79.0,71.0,-100.00,SSW,206,8.0,16.0,76,0.00,,,0.00,570.000000,,2013-09-12 20:42:00,
2013-09-12 16:52:00,79.0,71.0,-100.00,SSW,206,8.0,16.0,76,0.00,,,0.00,570.000000,,2013-09-12 20:52:00,
2013-09-12 17:02:00,79.0,71.0,-100.00,SSW,206,8.0,16.0,76,0.00,,,0.00,570.000000,,2013-09-12 21:02:00,
2013-09-12 17:11:00,79.0,71.0,-100.00,SSW,206,8.0,16.0,76,0.00,,,0.00,570.000000,,2013-09-12 21:11:00,
2013-09-12 17:12:00,76.0,69.0,-100.00,SSW,204,7.0,17.0,80,0.00,,,0.00,348.000000,,2013-09-12 21:12:00,
2013-09-12 17:43:00,76.0,69.0,-100.00,SSW,204,7.0,17.0,80,0.00,,,0.00,348.000000,,2013-09-12 21:43:00,
2013-09-12 17:54:00,76.0,69.0,-100.00,SSW,204,7.0,17.0,80,0.00,,,0.00,348.000000,,2013-09-12 21:54:00,
2013-09-12 18:04:00,76.0,69.0,-100.00,SSW,204,7.0,17.0,80,0.00,,,0.00,348.000000,,2013-09-12 22:04:00,
2013-09-12 18:12:00,72.0,69.0,-100.00,SSW,208,7.0,20.0,89,0.00,,,0.00,68.000000,,2013-09-12 22:12:00,
2013-09-12 18:43:00,72.0,69.0,-100.00,SSW,208,7.0,20.0,89,0.00,,,0.00,68.000000,,2013-09-12 22:43:00,
2013-09-12 18:54:00,72.0,69.0,-100.00,SSW,208,7.0,20.0,89,0.00,,,0.00,68.000000,,2013-09-12 22:54:00,
2013-09-12 19:04:00,72.0,69.0,-100.00,SSW,208,7.0,20.0,89,0.00,,,0.00,68.000000,,2013-09-12 23:04:00,
2013-09-12 19:43:00,71.0,69.0,-100.00,SSW,204,5.0,14.0,92,0.00,,,0.00,12.000000,,2013-09-12 23:43:00,
2013-09-12 19:53:00,71.0,69.0,-100.00,SSW,204,5.0,14.0,92,0.00,,,0.00,12.000000,,2013-09-12 23:53:00,
2013-09-12 20:01:00,71.0,69.0,-100.00,SSW,204,5.0,14.0,92,0.00,,,0.00,12.000000,,2013-09-13 00:01:00,
2013-09-12 20:11:00,71.0,69.0,-100.00,SSW,204,5.0,14.0,92,0.00,,,0.00,12.000000,,2013-09-13 00:11:00,
2013-09-12 20:42:00,71.0,69.0,-100.00,SSW,202,6.0,15.0,93,0.00,,,0.00,0.000000,,2013-09-13 00:42:00,
2013-09-12 20:52:00,71.0,69.0,-100.00,SSW,202,6.0,15.0,93,0.00,,,0.00,0.000000,,2013-09-13 00:52:00,
2013-09-12 21:02:00,71.0,69.0,-100.00,SSW,202,6.0,15.0,93,0.00,,,0.00,0.000000,,2013-09-13 01:02:00,
2013-09-12 21:11:00,71.0,69.0,-100.00,SSW,202,6.0,15.0,93,0.00,,,0.00,0.000000,,2013-09-13 01:11:00,
2013-09-12 21:12:00,71.0,69.0,-100.00,SSW,208,5.0,13.0,93,0.00,,,0.00,0.000000,,2013-09-13 01:12:00,
2013-09-12 21:42:00,71.0,69.0,-100.00,SSW,208,5.0,13.0,93,0.00,,,0.00,0.000000,,2013-09-13 01:42:00,
2013-09-12 21:53:00,71.0,69.0,-100.00,SSW,208,5.0,13.0,93,0.00,,,0.00,0.000000,,2013-09-13 01:53:00,
2013-09-12 22:02:00,71.0,69.0,-100.00,SSW,208,5.0,13.0,93,0.00,,,0.00,0.000000,,2013-09-13 02:02:00,
2013-09-12 22:12:00,70.0,68.0,-100.00,SSW,197,5.0,13.0,92,0.00,,,0.00,0.000000,,2013-09-13 02:12:00,
2013-09-12 22:43:00,70.0,68.0,-100.00,SSW,197,5.0,13.0,92,0.00,,,0.00,0.000000,,2013-09-13 02:43:00,
2013-09-12 22:53:00,70.0,68.0,-100.00,SSW,197,5.0,13.0,92,0.00,,,0.00,0.000000,,2013-09-13 02:53:00,
2013-09-12 23:02:00,70.0,68.0,-100.00,SSW,197,5.0,13.0,92,0.00,,,0.00,0.000000,,2013-09-13 03:02:00,
2013-09-12 23:12:00,70.0,68.0,-100.00,SSW,207,6.0,11.0,94,0.00,,,0.00,0.000000,,2013-09-13 03:12:00,
2013-09-12 23:45:00,70.0,68.0,-100.00,SSW,207,6.0,11.0,94,0.00,,,0.00,0.000000,,2013-09-13 03:45:00,
2013-09-12 23:55:00,70.0,68.0,-100.00,SSW,207,6.0,11.0,94,0.00,,,0.00,0.000000,,2013-09-13 03:55:00,